Time;durP1;ratioP1;P1;durP2;ratioP2;P2;SDS_P1;SDS_P2;PMS_P1;PMS_P2;Temp;Humidity;BMP_temperature;BMP_pressure;BME280_temperature;BME280_humidity;BME280_pressure;Samples;Min_cycle;Max_cycle;Signal;HPM_P1;HPM_P2
2022/07/01 00:00:50;;;;;;;4.10;2.80;;;;;;;23.51;56.70;99171.09;5024495;28;20024;-94
2022/07/01 00:03:16;;;;;;;7.80;3.15;;;;;;;23.38;56.48;99145.66;5024975;28;20036;-93
2022/07/01 00:05:42;;;;;;;5.53;2.75;;;;;;;23.31;57.28;99169.47;5024841;28;20016;-95
2022/07/01 00:08:07;;;;;;;7.55;3.03;;;;;;;23.19;57.96;99162.13;5024845;28;20114;-94
2022/07/01 00:10:33;;;;;;;5.70;3.25;;;;;;;23.08;57.95;99158.34;5024605;28;20107;-95
2022/07/01 00:12:59;;;;;;;6.22;2.95;;;;;;;23.04;58.06;99161.00;5024795;28;20059;-95
2022/07/01 00:15:24;;;;;;;5.05;2.80;;;;;;;23.14;58.14;99176.16;5024455;28;20020;-95
2022/07/01 00:17:50;;;;;;;8.27;3.40;;;;;;;22.84;58.91;99149.13;5024527;28;20119;-95
2022/07/01 00:20:15;;;;;;;7.03;3.25;;;;;;;22.77;59.39;99148.97;5024420;28;20028;-95
2022/07/01 00:22:41;;;;;;;8.15;3.10;;;;;;;22.75;59.68;99162.25;5024560;28;20020;-94
2022/07/01 00:25:07;;;;;;;4.50;3.30;;;;;;;22.66;59.70;99161.63;5024585;28;20043;-95
2022/07/01 00:27:36;;;;;;;5.07;3.10;;;;;;;22.77;59.51;99171.72;5024649;28;20032;-94
2022/07/01 00:30:01;;;;;;;4.38;3.00;;;;;;;22.80;59.46;99167.47;5041164;28;20038;-93
2022/07/01 00:32:27;;;;;;;4.45;2.90;;;;;;;22.62;59.94;99158.81;5024447;28;20028;-94
2022/07/01 00:34:53;;;;;;;8.57;3.15;;;;;;;22.58;59.87;99146.94;5024519;28;20029;-94
2022/07/01 00:37:18;;;;;;;9.90;3.38;;;;;;;22.55;60.29;99153.13;5024209;28;20020;-95
2022/07/01 00:39:44;;;;;;;8.20;2.95;;;;;;;22.54;59.83;99160.56;5023948;28;20089;-94
2022/07/01 00:42:09;;;;;;;7.47;2.92;;;;;;;22.53;59.09;99145.25;5041053;28;20471;-94
2022/07/01 00:44:34;;;;;;;5.63;3.00;;;;;;;22.73;59.62;99159.84;5023788;28;20028;-94
2022/07/01 00:47:02;;;;;;;5.22;2.85;;;;;;;22.58;58.81;99150.47;5024110;28;20059;-94
2022/07/01 00:49:27;;;;;;;5.20;3.22;;;;;;;22.65;59.03;99147.13;5040736;28;20032;-95
2022/07/01 00:51:53;;;;;;;7.80;3.17;;;;;;;22.65;58.65;99143.56;5023829;28;20078;-94
2022/07/01 00:54:19;;;;;;;7.95;3.17;;;;;;;22.76;58.12;99141.88;5023750;28;20044;-95
2022/07/01 00:56:45;;;;;;;5.55;2.83;;;;;;;22.75;58.26;99145.78;5024172;28;20056;-94
2022/07/01 00:59:10;;;;;;;7.38;2.83;;;;;;;22.77;58.18;99146.22;5023641;28;20072;-94
2022/07/01 01:01:36;;;;;;;8.75;2.70;;;;;;;22.64;58.82;99147.47;5023213;28;20161;-95
2022/07/01 01:04:02;;;;;;;8.18;3.00;;;;;;;22.42;58.74;99135.19;5024106;28;20086;-95
2022/07/01 01:06:28;;;;;;;7.55;2.80;;;;;;;22.32;59.72;99148.25;5024050;28;20036;-96
2022/07/01 01:08:53;;;;;;;4.70;3.38;;;;;;;22.31;59.49;99160.38;5023945;28;20056;-95
2022/07/01 01:11:19;;;;;;;11.98;2.88;;;;;;;22.08;59.40;99151.09;5023611;28;20031;-95
2022/07/01 01:13:44;;;;;;;6.82;2.95;;;;;;;22.07;58.97;99163.22;5023342;28;20033;-95
2022/07/01 01:16:20;;;;;;;10.27;3.10;;;;;;;22.18;58.71;99161.56;5023478;28;20033;-95
2022/07/01 01:18:45;;;;;;;10.38;3.10;;;;;;;22.07;58.53;99152.25;5024048;28;20459;-95
2022/07/01 01:21:11;;;;;;;6.57;2.55;;;;;;;21.88;60.12;99147.44;5039876;28;20039;-95
2022/07/01 01:23:36;;;;;;;4.70;2.60;;;;;;;21.89;59.79;99158.03;5023525;28;20098;-94
2022/07/01 01:26:02;;;;;;;7.07;2.88;;;;;;;22.03;59.40;99165.06;5023611;28;20042;-95
2022/07/01 01:28:28;;;;;;;7.85;2.50;;;;;;;21.93;59.68;99161.69;5039691;28;20024;-95
2022/07/01 01:30:53;;;;;;;4.63;2.80;;;;;;;21.90;60.51;99172.56;5023273;28;20021;-95
2022/07/01 01:33:19;;;;;;;7.50;2.67;;;;;;;21.81;60.22;99153.53;5040035;28;20067;-94
2022/07/01 01:35:44;;;;;;;4.15;2.70;;;;;;;21.68;60.57;99147.28;5023097;28;20028;-95
2022/07/01 01:38:10;;;;;;;7.70;2.70;;;;;;;21.75;60.08;99149.44;5039398;28;20410;-95
2022/07/01 01:40:35;;;;;;;6.05;2.97;;;;;;;21.80;60.00;99162.88;5023006;28;20089;-95
2022/07/01 01:43:01;;;;;;;7.93;2.80;;;;;;;21.64;60.49;99159.28;5039523;28;20067;-95
2022/07/01 01:45:26;;;;;;;6.72;2.70;;;;;;;21.67;60.72;99178.59;5022862;28;20028;-94
2022/07/01 01:47:52;;;;;;;7.05;2.78;;;;;;;21.54;60.49;99169.59;5022848;28;20457;-95
2022/07/01 01:50:19;;;;;;;5.75;2.75;;;;;;;21.45;60.52;99166.19;5022782;28;20035;-93
2022/07/01 01:52:45;;;;;;;5.28;2.78;;;;;;;21.57;61.02;99187.28;5022966;28;20056;-93
2022/07/01 01:55:10;;;;;;;4.68;2.83;;;;;;;21.43;61.33;99184.13;5022792;28;20498;-93
2022/07/01 01:57:36;;;;;;;8.95;3.22;;;;;;;21.34;61.72;99167.78;5023027;28;20024;-94
2022/07/01 02:00:04;;;;;;;10.45;2.90;;;;;;;21.27;62.32;99181.25;5023476;28;20523;-93
2022/07/01 02:02:29;;;;;;;10.07;2.97;;;;;;;21.25;62.07;99164.38;5039303;28;20031;-93
2022/07/01 02:04:58;;;;;;;5.95;2.72;;;;;;;21.20;61.77;99166.19;5022949;28;20028;-93
2022/07/01 02:07:23;;;;;;;5.97;3.05;;;;;;;21.31;61.72;99180.25;5022695;28;20056;-95
2022/07/01 02:09:49;;;;;;;7.07;3.05;;;;;;;21.21;61.75;99175.25;5022672;28;20047;-93
2022/07/01 02:12:14;;;;;;;5.70;3.05;;;;;;;21.40;61.29;99185.59;5022289;28;20031;-94
2022/07/01 02:14:40;;;;;;;5.80;2.70;;;;;;;21.41;60.82;99173.47;5021692;28;20067;-93
2022/07/01 02:17:06;;;;;;;7.45;3.10;;;;;;;21.41;61.72;99195.38;5039362;28;20067;-94
2022/07/01 02:19:31;;;;;;;6.60;2.95;;;;;;;21.20;62.13;99182.63;5022318;28;20089;-94
2022/07/01 02:21:57;;;;;;;11.95;3.40;;;;;;;21.18;61.98;99187.66;5022297;28;20021;-94
2022/07/01 02:24:22;;;;;;;12.57;3.00;;;;;;;21.10;62.43;99179.56;5023444;28;20467;-94
2022/07/01 02:26:48;;;;;;;6.30;2.97;;;;;;;21.11;62.40;99194.88;5022450;28;20405;-94
2022/07/01 02:29:14;;;;;;;4.32;3.00;;;;;;;21.19;62.02;99200.22;5022190;28;20025;-93
2022/07/01 02:31:42;;;;;;;14.05;2.88;;;;;;;21.12;62.24;99193.72;5022128;28;20021;-94
2022/07/01 02:34:08;;;;;;;10.10;3.33;;;;;;;21.12;62.20;99196.44;5022392;28;20081;-93
2022/07/01 02:36:37;;;;;;;5.43;2.72;;;;;;;21.20;62.25;99210.00;5022280;28;20024;-94
2022/07/01 02:39:03;;;;;;;6.28;3.22;;;;;;;21.12;62.17;99201.94;5022260;28;20494;-93
2022/07/01 02:41:28;;;;;;;7.80;3.15;;;;;;;21.03;62.69;99190.31;5021876;28;20024;-93
2022/07/01 02:43:54;;;;;;;6.78;3.10;;;;;;;21.06;63.10;99208.78;5022198;28;20024;-92
2022/07/01 02:46:19;;;;;;;7.93;3.00;;;;;;;20.94;63.30;99196.69;5023002;28;20028;-93
2022/07/01 02:48:45;;;;;;;5.35;2.97;;;;;;;20.94;62.69;99198.63;5022227;28;20499;-92
2022/07/01 02:51:10;;;;;;;9.70;3.47;;;;;;;21.01;63.00;99212.53;5022631;28;20025;-93
2022/07/01 02:53:36;;;;;;;8.93;3.42;;;;;;;20.97;62.99;99208.88;5022253;28;20064;-92
2022/07/01 02:56:02;;;;;;;8.13;2.90;;;;;;;20.97;63.75;99215.16;5022554;28;20025;-94
2022/07/01 02:58:27;;;;;;;7.40;3.40;;;;;;;20.95;63.04;99217.44;5022228;28;20029;-93
2022/07/01 03:00:53;;;;;;;9.13;3.15;;;;;;;20.81;63.45;99197.81;5021995;28;20094;-92
2022/07/01 03:03:19;;;;;;;13.70;3.75;;;;;;;20.77;63.86;99210.56;5022599;28;20028;-92
2022/07/01 03:05:47;;;;;;;12.13;3.38;;;;;;;20.68;63.89;99201.69;5022119;28;20029;-93
2022/07/01 03:08:12;;;;;;;9.52;3.42;;;;;;;20.62;63.65;99214.78;5022758;28;20020;-93
2022/07/01 03:10:38;;;;;;;10.07;3.83;;;;;;;20.67;63.41;99217.31;5038350;28;20070;-93
2022/07/01 03:13:03;;;;;;;10.50;3.30;;;;;;;20.66;63.43;99210.22;5022239;28;20052;-93
2022/07/01 03:15:29;;;;;;;8.20;3.58;;;;;;;20.69;63.36;99219.69;5022566;28;20094;-93
2022/07/01 03:17:54;;;;;;;12.95;3.50;;;;;;;20.73;63.23;99228.81;5022238;28;20029;-92
2022/07/01 03:20:20;;;;;;;12.73;3.15;;;;;;;20.61;63.85;99202.25;5022006;28;20029;-92
2022/07/01 03:22:46;;;;;;;7.82;3.20;;;;;;;20.69;63.29;99216.94;5021824;28;20033;-93
2022/07/01 03:25:11;;;;;;;5.18;3.22;;;;;;;20.67;63.91;99220.03;5022641;28;20035;-92
2022/07/01 03:27:37;;;;;;;7.82;3.17;;;;;;;20.73;63.71;99215.94;5025263;28;20029;-91
2022/07/01 03:30:03;;;;;;;11.77;3.15;;;;;;;20.87;63.66;99231.25;5025357;28;20036;-94
2022/07/01 03:32:29;;;;;;;6.45;3.33;;;;;;;20.87;63.77;99232.03;5026753;28;20048;-93
2022/07/01 03:34:54;;;;;;;10.35;3.55;;;;;;;20.64;63.93;99223.44;5025572;28;20060;-93
2022/07/01 03:37:20;;;;;;;7.95;3.63;;;;;;;20.46;64.91;99211.06;5025319;28;20039;-95
2022/07/01 03:39:46;;;;;;;5.72;3.70;;;;;;;20.41;64.99;99220.28;5025360;28;20032;-94
2022/07/01 03:42:12;;;;;;;7.93;3.85;;;;;;;20.46;64.63;99235.69;5025354;28;20025;-94
2022/07/01 03:44:37;;;;;;;10.32;3.83;;;;;;;20.30;65.61;99219.13;5025731;28;20204;-95
2022/07/01 03:47:03;;;;;;;10.07;3.85;;;;;;;20.37;65.34;99224.84;5025569;28;20066;-95
2022/07/01 03:49:28;;;;;;;8.90;3.80;;;;;;;20.33;65.74;99232.91;5026404;28;20025;-94
2022/07/01 03:51:54;;;;;;;8.05;3.90;;;;;;;20.26;66.15;99229.94;5025234;28;20052;-95
2022/07/01 03:54:38;;;;;;;14.60;4.13;;;;;;;20.26;65.87;99227.19;5002308;28;20479;-96
2022/07/01 03:57:08;;;;;;;10.30;4.15;;;;;;;20.28;65.26;99222.19;5007794;28;20029;-96
2022/07/01 03:59:38;;;;;;;7.70;4.30;;;;;;;20.32;65.56;99227.81;5006106;28;20112;-95
2022/07/01 04:02:04;;;;;;;13.88;4.55;;;;;;;20.34;66.18;99237.25;5002954;28;20021;-96
2022/07/01 04:04:30;;;;;;;13.02;5.32;;;;;;;20.34;65.52;99234.53;5002461;28;20052;-96
2022/07/01 04:06:57;;;;;;;12.82;6.20;;;;;;;20.49;65.93;99248.69;5002344;28;20127;-95
2022/07/01 04:09:23;;;;;;;13.48;5.97;;;;;;;20.66;65.35;99250.47;5002384;28;20025;-94
2022/07/01 04:11:48;;;;;;;11.80;6.22;;;;;;;20.70;64.41;99249.44;5002509;28;20052;-94
2022/07/01 04:14:14;;;;;;;9.05;5.20;;;;;;;20.73;65.24;99261.66;5002439;28;20543;-93
2022/07/01 04:20:01;;;;;;;13.23;6.22;;;;;;;20.67;65.14;99272.03;5036562;28;20080;-94
2022/07/01 04:22:33;;;;;;;18.63;8.05;;;;;;;20.59;64.58;99253.78;5019344;28;20021;-93
2022/07/01 04:24:59;;;;;;;21.17;9.35;;;;;;;20.75;65.26;99273.06;5019976;28;20095;-95
2022/07/01 04:27:24;;;;;;;24.30;11.70;;;;;;;20.76;65.25;99267.25;5003446;28;20029;-93
2022/07/01 04:29:50;;;;;;;28.23;12.13;;;;;;;20.81;64.96;99266.22;5019386;28;20025;-94
2022/07/01 04:32:15;;;;;;;30.40;13.20;;;;;;;20.95;65.12;99271.38;5002658;28;20108;-95
2022/07/01 04:34:41;;;;;;;42.55;13.40;;;;;;;21.08;64.73;99275.72;5019600;28;20029;-95
2022/07/01 04:37:07;;;;;;;43.03;14.77;;;;;;;21.20;64.04;99288.63;5018772;28;20487;-96
2022/07/01 04:39:32;;;;;;;25.58;13.63;;;;;;;21.19;64.09;99287.84;5020903;28;20129;-96
2022/07/01 04:42:01;;;;;;;25.30;12.10;;;;;;;21.07;64.34;99279.63;5018775;28;20026;-95
2022/07/01 04:44:31;;;;;;;35.90;12.18;;;;;;;21.06;64.50;99278.00;5019460;28;20028;-93
2022/07/01 04:46:56;;;;;;;31.70;12.45;;;;;;;20.96;64.48;99273.00;5019385;28;20025;-95
2022/07/01 04:49:24;;;;;;;28.05;12.75;;;;;;;21.02;65.26;99295.47;5002539;28;20053;-93
2022/07/01 04:51:50;;;;;;;29.38;13.75;;;;;;;21.02;63.93;99277.09;5020051;28;20021;-94
2022/07/01 04:54:15;;;;;;;38.67;17.05;;;;;;;21.15;63.93;99292.41;5016273;28;20108;-93
2022/07/01 04:56:41;;;;;;;70.43;41.50;;;;;;;21.25;64.46;99288.44;5016920;28;20025;-95
2022/07/01 04:59:07;;;;;;;73.25;34.15;;;;;;;21.31;64.20;99294.44;4969884;28;20549;-96
2022/07/01 05:01:34;;;;;;;34.42;14.20;;;;;;;21.34;63.90;99283.63;4984984;28;20057;-96
2022/07/01 05:04:10;;;;;;;;;;;;;;;;;;;;;
2022/07/01 05:06:39;;;;;;;26.33;15.25;;;;;;;21.61;62.59;99275.88;5008810;28;20085;-96
2022/07/01 05:09:05;;;;;;;16.05;6.28;;;;;;;21.80;59.29;99276.06;5019576;28;20021;-95
2022/07/01 05:11:31;;;;;;;22.55;8.82;;;;;;;21.95;59.37;99280.00;5017331;28;20021;-95
2022/07/01 05:13:56;;;;;;;14.48;5.60;;;;;;;22.06;58.75;99279.53;4984334;28;20149;-96
2022/07/01 05:16:22;;;;;;;9.70;5.13;;;;;;;22.22;57.97;99285.88;5018827;28;20022;-95
2022/07/01 05:24:18;;;;;;;10.63;4.65;;;;;;;22.77;56.38;99300.75;5003391;28;20060;-94
2022/07/01 05:26:43;;;;;;;11.57;3.90;;;;;;;22.94;55.89;99304.31;5015724;28;20026;-95
2022/07/01 05:29:09;;;;;;;8.95;3.58;;;;;;;22.91;55.91;99280.28;5015932;28;20022;-91
2022/07/01 05:31:37;;;;;;;17.88;5.45;;;;;;;22.90;56.24;99274.00;4998294;28;20030;-91
2022/07/01 05:34:03;;;;;;;7.18;3.50;;;;;;;22.91;56.44;99266.56;4981394;28;20076;-89
2022/07/01 05:36:28;;;;;;;11.00;5.57;;;;;;;23.15;56.14;99287.59;5031938;28;20069;-91
2022/07/01 05:38:54;;;;;;;7.30;3.72;;;;;;;23.22;55.87;99296.00;4981897;28;20021;-95
2022/07/01 05:41:20;;;;;;;11.40;5.57;;;;;;;23.16;56.33;99272.72;5013435;28;20052;-92
2022/07/01 05:43:46;;;;;;;9.07;4.00;;;;;;;23.23;56.69;99277.59;5003189;28;20025;-94
2022/07/01 05:46:11;;;;;;;8.80;3.58;;;;;;;23.43;54.85;99293.00;5007722;28;20025;-94
2022/07/01 05:48:37;;;;;;;15.02;3.95;;;;;;;23.59;54.81;99298.44;5005219;28;20025;-92
2022/07/01 05:51:06;;;;;;;19.55;5.10;;;;;;;23.71;54.85;99297.53;5008204;28;20048;-93
2022/07/01 05:53:47;;;;;;;12.00;4.30;;;;;;;23.68;54.27;99279.81;5027065;28;20043;-96
2022/07/01 05:56:13;;;;;;;8.65;5.15;;;;;;;23.76;53.57;99278.00;5053660;28;20139;-89
2022/07/01 05:58:38;;;;;;;15.75;4.00;;;;;;;23.89;54.13;99297.97;5035950;28;20033;-89
2022/07/01 06:01:04;;;;;;;18.77;5.38;;;;;;;24.06;53.22;99305.81;5011301;28;20024;-92
2022/07/01 06:03:29;;;;;;;14.73;4.28;;;;;;;24.20;53.26;99294.31;5011011;28;20027;-92
2022/07/01 06:05:55;;;;;;;17.70;4.40;;;;;;;24.43;52.04;99310.88;5043610;28;20020;-93
2022/07/01 06:08:23;;;;;;;8.93;4.43;;;;;;;24.51;51.03;99304.38;5025593;28;20028;-92
2022/07/01 06:10:49;;;;;;;15.98;5.60;;;;;;;24.40;51.83;99295.91;5026676;28;20027;-94
2022/07/01 06:13:17;;;;;;;13.18;3.33;;;;;;;24.52;51.41;99285.91;5024903;28;20032;-93
2022/07/01 06:15:43;;;;;;;39.40;5.45;;;;;;;24.58;50.76;99289.97;5007196;28;20047;-92
2022/07/01 06:18:11;;;;;;;11.45;3.85;;;;;;;24.91;50.60;99305.13;5035994;28;20057;-93
2022/07/01 06:20:45;;;;;;;15.55;6.40;;;;;;;25.01;50.00;99302.53;5020089;28;20021;-94
2022/07/01 06:23:10;;;;;;;16.65;4.00;;;;;;;25.14;50.78;99311.41;5037525;28;20096;-92
2022/07/01 06:25:42;;;;;;;28.60;5.00;;;;;;;25.13;49.74;99306.25;5022877;28;20380;-96
2022/07/01 06:28:07;;;;;;;;;;;;;;;25.48;49.21;99344.66;5037361;28;20028;-91
2022/07/01 06:30:33;;;;;;;9.38;3.95;;;;;;;25.49;49.41;99331.69;5037907;28;19957;-92
2022/07/01 06:33:16;;;;;;;18.80;4.45;;;;;;;25.74;48.55;99351.38;5019537;28;20048;-95
2022/07/01 06:35:57;;;;;;;14.13;3.38;;;;;;;25.70;48.96;99345.00;5027293;28;20029;-93
2022/07/01 06:38:23;;;;;;;11.30;3.70;;;;;;;25.86;48.90;99348.41;5007766;28;20059;-96
2022/07/01 06:43:56;;;;;;;11.68;3.90;;;;;;;26.06;48.28;99362.09;5031824;28;20031;-95
2022/07/01 06:46:26;;;;;;;14.13;3.80;;;;;;;25.99;48.17;99338.75;5006619;28;20480;-96
2022/07/01 06:48:51;;;;;;;9.52;4.25;;;;;;;25.95;47.69;99318.59;5011227;28;20021;-96
2022/07/01 06:51:17;;;;;;;13.35;4.20;;;;;;;25.99;47.88;99296.59;5024196;28;20376;-92
2022/07/01 06:56:57;;;;;;;21.27;7.90;;;;;;;26.25;47.87;99305.97;5080917;23;20113;-95
2022/07/01 06:59:23;;;;;;;16.67;4.93;;;;;;;26.39;47.74;99320.72;4984471;28;20046;-94
2022/07/01 07:01:52;;;;;;;11.32;4.45;;;;;;;26.48;47.62;99312.19;4987206;28;20455;-94
2022/07/01 07:27:39;;;;;;;31.00;13.07;;;;;;;27.09;47.42;99290.69;4972524;28;20038;-95
2022/07/01 07:44:21;;;;;;;30.60;24.17;;;;;;;27.57;47.06;99307.28;4858958;29;20341;-95
2022/07/01 08:00:45;;;;;;;9.77;3.58;;;;;;;28.56;43.74;99301.88;5090232;22;20051;-93
2022/07/01 08:06:44;;;;;;;7.97;3.28;;;;;;;28.93;41.71;99320.13;5059224;28;20114;-95
2022/07/01 08:09:24;;;;;;;39.15;30.35;;;;;;;28.59;40.52;99299.09;5023919;28;20647;-92
2022/07/01 08:15:19;;;;;;;4.80;3.10;;;;;;;29.11;39.30;99312.66;4998912;28;20053;-95
2022/07/01 08:25:02;;;;;;;6.97;4.57;;;;;;;29.45;39.46;99326.16;4997161;28;20044;-95
2022/07/01 08:27:28;;;;;;;12.63;5.03;;;;;;;29.42;39.50;99313.84;4965049;28;20036;-96
2022/07/01 08:29:53;;;;;;;9.30;3.75;;;;;;;29.31;39.30;99310.28;4964485;28;20463;-93
2022/07/01 08:32:21;;;;;;;14.50;4.80;;;;;;;29.39;40.35;99305.53;4967785;28;20671;-94
2022/07/01 08:34:50;;;;;;;17.23;5.35;;;;;;;29.48;39.88;99302.34;4966288;28;20042;-95
2022/07/01 08:37:18;;;;;;;16.52;4.82;;;;;;;29.56;39.99;99310.25;4970288;28;20077;-95
2022/07/01 08:40:04;;;;;;;6.68;3.45;;;;;;;29.57;39.92;99302.72;5015543;28;20037;-94
2022/07/01 08:42:29;;;;;;;20.60;10.13;;;;;;;29.64;39.70;99322.16;5024995;28;20040;-93
2022/07/01 08:44:57;;;;;;;13.18;4.53;;;;;;;29.54;39.79;99312.66;5006811;28;20115;-93
2022/07/01 08:50:20;;;;;;;13.00;4.57;;;;;;;29.64;39.90;99313.03;4969176;28;20087;-94
2022/07/01 08:52:45;;;;;;;8.55;3.53;;;;;;;29.93;39.48;99330.44;4963421;28;20129;-94
2022/07/01 08:59:00;;;;;;;;;;;;;;;;;;;;;
2022/07/01 09:02:16;;;;;;;16.63;8.55;;;;;;;30.31;37.23;99316.84;4981664;28;20064;-95
2022/07/01 09:04:18;;;;;;;;;;;;;;;30.61;36.44;99335.78;4936658;29;20047;-93
2022/07/01 09:10:22;;;;;;;6.13;3.70;;;;;;;30.94;35.57;99337.19;4937428;29;20092;-93
2022/07/01 09:12:50;;;;;;;5.60;2.88;;;;;;;30.99;35.62;99322.06;4906171;29;20075;-94
2022/07/01 09:15:26;;;;;;;7.45;3.40;;;;;;;31.20;37.23;99333.00;4960663;28;20042;-96
2022/07/01 09:18:07;;;;;;;7.38;3.60;;;;;;;31.21;35.90;99315.13;4998611;28;20030;-95
2022/07/01 09:21:04;;;;;;;9.93;3.95;;;;;;;31.30;36.35;99306.31;5004889;28;20149;-96
2022/07/01 09:23:42;;;;;;;13.00;3.60;;;;;;;31.25;35.66;99315.06;4984676;28;20084;-96
2022/07/01 09:26:08;;;;;;;6.70;3.60;;;;;;;31.28;35.53;99308.69;4964649;29;20039;-94
2022/07/01 09:29:00;;;;;;;9.73;2.90;;;;;;;31.49;34.70;99330.00;4990621;28;20096;-93
2022/07/01 09:31:34;;;;;;;11.63;5.28;;;;;;;31.48;35.00;99303.41;4954174;29;20051;-92
2022/07/01 09:34:09;;;;;;;6.15;3.30;;;;;;;31.71;34.73;99316.69;4958483;28;20039;-94
2022/07/01 09:36:41;;;;;;;8.90;3.75;;;;;;;31.78;35.39;99319.38;4944579;28;20517;-94
2022/07/01 09:39:09;;;;;;;15.70;4.13;;;;;;;31.86;34.33;99319.31;4928883;28;20047;-93
2022/07/01 09:41:36;;;;;;;9.73;4.35;;;;;;;31.77;33.70;99298.31;4944499;28;20038;-94
2022/07/01 09:44:06;;;;;;;10.82;4.13;;;;;;;31.98;32.63;99305.66;4943550;28;20030;-93
2022/07/01 09:46:32;;;;;;;7.45;3.30;;;;;;;32.01;33.25;99306.84;4943180;28;20142;-94
2022/07/01 09:49:00;;;;;;;7.00;3.00;;;;;;;31.95;31.28;99297.31;4942983;28;20082;-95
2022/07/01 09:51:26;;;;;;;17.00;3.35;;;;;;;32.07;32.99;99302.38;4943700;28;20198;-93
2022/07/01 09:54:00;;;;;;;9.05;3.53;;;;;;;32.15;33.15;99291.94;4947690;28;20077;-93
2022/07/01 09:56:29;;;;;;;12.82;3.72;;;;;;;32.26;33.32;99292.59;4991736;28;20033;-92
2022/07/01 09:58:54;;;;;;;8.52;2.97;;;;;;;32.46;32.96;99289.13;5006304;28;20066;-93
2022/07/01 10:01:20;;;;;;;6.20;3.30;;;;;;;32.47;32.75;99272.00;5006034;28;20021;-94
2022/07/01 10:03:50;;;;;;;10.68;3.45;;;;;;;32.41;31.90;99273.66;4993884;28;20045;-94
2022/07/01 10:06:37;;;;;;;6.18;3.28;;;;;;;32.52;29.08;99291.06;4994088;28;20084;-93
2022/07/01 10:09:25;;;;;;;26.77;22.88;;;;;;;32.64;27.99;99295.28;5011711;28;20030;-94
2022/07/01 10:12:01;;;;;;;53.63;46.97;;;;;;;32.53;26.97;99275.88;5008643;28;20455;-95
2022/07/01 10:14:27;;;;;;;5.05;2.92;;;;;;;32.59;26.72;99271.44;5006138;28;20479;-94
2022/07/01 10:16:53;;;;;;;5.25;3.35;;;;;;;32.56;25.67;99258.38;4987775;28;20039;-94
2022/07/01 10:19:25;;;;;;;148.13;106.38;;;;;;;32.62;27.13;99278.19;5001567;28;20061;-94
2022/07/01 10:21:56;;;;;;;7.13;5.13;;;;;;;32.59;27.10;99267.88;5049279;28;20032;-95
2022/07/01 10:24:22;;;;;;;;;;;;;;;32.72;27.49;99277.22;5009179;28;20063;-92
2022/07/01 10:26:48;;;;;;;4.57;2.45;;;;;;;32.66;27.66;99261.41;5035037;28;19908;-91
2022/07/01 10:29:35;;;;;;;4.05;3.35;;;;;;;32.76;29.38;99266.03;5021917;28;20195;-92
2022/07/01 10:32:12;;;;;;;7.95;3.20;;;;;;;32.79;28.35;99256.84;5014992;28;20040;-91
2022/07/01 10:34:39;;;;;;;8.55;3.72;;;;;;;32.80;28.87;99250.81;4995384;28;20060;-93
2022/07/01 10:37:09;;;;;;;12.07;3.70;;;;;;;32.83;28.41;99232.44;5017149;28;20032;-92
2022/07/01 10:40:06;;;;;;;12.50;3.63;;;;;;;33.00;28.02;99255.69;5014268;28;20068;-90
2022/07/01 10:42:33;;;;;;;8.40;3.92;;;;;;;33.01;28.80;99234.94;5021803;28;20109;-90
2022/07/01 10:45:11;;;;;;;10.38;3.10;;;;;;;32.88;29.22;99233.97;5017686;28;20036;-91
2022/07/01 10:47:38;;;;;;;5.55;2.95;;;;;;;32.93;29.12;99236.28;5001115;28;20029;-91
2022/07/01 10:50:06;;;;;;;8.30;2.80;;;;;;;32.82;29.06;99219.72;5000812;28;20032;-90
2022/07/01 10:52:33;;;;;;;15.23;4.45;;;;;;;32.83;28.42;99229.66;5003335;28;20032;-95
2022/07/01 10:55:00;;;;;;;7.30;4.10;;;;;;;32.95;27.89;99225.47;5021760;28;20025;-94
2022/07/01 10:57:40;;;;;;;;;;;;;;;;;;;;;
2022/07/01 11:00:06;;;;;;;6.40;3.00;;;;;;;33.18;28.41;99227.50;5037497;28;20124;-95
2022/07/01 11:02:36;;;;;;;7.93;3.08;;;;;;;33.14;27.44;99218.41;5034013;28;20084;-94
2022/07/01 11:05:03;;;;;;;6.72;2.85;;;;;;;33.27;27.92;99232.50;4998762;28;20052;-92
2022/07/01 11:07:32;;;;;;;5.97;3.10;;;;;;;33.19;28.98;99215.13;5015612;28;20028;-93
2022/07/01 11:09:59;;;;;;;8.82;2.78;;;;;;;33.27;28.03;99224.16;5000097;28;20094;-93
2022/07/01 11:12:25;;;;;;;6.30;2.92;;;;;;;33.09;29.09;99202.16;4999046;28;20088;-94
2022/07/01 11:14:58;;;;;;;13.07;3.40;;;;;;;33.36;29.38;99213.22;5016045;28;20033;-93
2022/07/01 11:17:24;;;;;;;8.93;3.35;;;;;;;33.47;28.43;99222.16;5002936;28;20045;-92
2022/07/01 11:20:01;;;;;;;88.78;79.63;;;;;;;33.37;28.41;99201.63;5000357;28;20036;-93
2022/07/01 11:22:28;;;;;;;10.57;4.60;;;;;;;33.49;28.89;99186.22;5002964;28;20021;-93
2022/07/01 11:24:58;;;;;;;6.38;2.90;;;;;;;33.51;28.40;99183.81;5000079;28;20104;-93
2022/07/01 11:27:27;;;;;;;9.50;3.27;;;;;;;33.55;28.06;99206.84;5018267;28;20087;-94
2022/07/01 11:29:56;;;;;;;9.68;3.38;;;;;;;33.50;27.99;99201.78;4999638;28;20283;-94
2022/07/01 11:32:33;;;;;;;4.80;2.92;;;;;;;33.34;27.87;99176.59;5016584;28;20017;-94
2022/07/01 11:35:05;;;;;;;7.53;4.47;;;;;;;33.51;28.19;99181.00;5000646;28;20033;-93
2022/07/01 11:40:39;;;;;;;8.68;4.15;;;;;;;33.46;27.77;99172.38;5017736;28;20028;-94
2022/07/01 11:43:34;;;;;;;7.40;3.10;;;;;;;33.61;27.59;99180.03;4998455;28;20029;-94
2022/07/01 11:46:05;;;;;;;14.75;7.28;;;;;;;33.65;27.57;99187.56;4997763;28;20041;-92
2022/07/01 11:48:32;;;;;;;4.22;2.85;;;;;;;33.61;26.79;99168.88;5003459;28;20435;-93
2022/07/01 11:50:58;;;;;;;8.73;3.78;;;;;;;33.62;27.41;99169.69;4988575;28;20021;-94
2022/07/01 11:53:24;;;;;;;15.60;3.90;;;;;;;33.70;28.34;99165.50;5003774;28;20026;-93
2022/07/01 11:55:55;;;;;;;9.40;4.00;;;;;;;33.83;28.32;99174.03;5016772;28;20032;-92
2022/07/01 11:58:21;;;;;;;8.30;3.60;;;;;;;33.86;28.55;99158.41;5018586;28;20332;-92
2022/07/01 12:00:49;;;;;;;9.85;3.30;;;;;;;33.89;27.98;99160.31;5001562;28;20045;-92
2022/07/01 12:03:29;;;;;;;4.82;3.20;;;;;;;33.97;28.00;99161.72;4987233;28;20036;-91
2022/07/01 12:05:55;;;;;;;5.55;2.95;;;;;;;33.90;27.12;99150.72;4996175;28;20026;-91
2022/07/01 12:08:21;;;;;;;6.68;3.88;;;;;;;33.92;26.45;99137.91;4982366;28;20406;-94
2022/07/01 12:10:46;;;;;;;6.15;3.13;;;;;;;33.95;24.78;99144.63;4981490;28;20033;-91
2022/07/01 12:13:22;;;;;;;6.18;3.20;;;;;;;33.96;24.90;99135.03;4999903;28;20025;-92
2022/07/01 12:15:48;;;;;;;6.35;3.03;;;;;;;34.07;24.82;99140.38;4989770;28;20452;-92
2022/07/01 12:18:17;;;;;;;8.80;4.20;;;;;;;34.02;24.76;99136.88;5000225;28;20045;-94
2022/07/01 12:20:50;;;;;;;5.43;2.83;;;;;;;33.99;24.75;99129.38;4988133;28;20528;-92
2022/07/01 12:23:16;;;;;;;11.07;3.58;;;;;;;34.17;24.91;99133.78;5016366;28;20052;-90
2022/07/01 12:25:49;;;;;;;7.13;3.00;;;;;;;34.10;24.07;99128.34;4998561;28;20026;-90
2022/07/01 12:28:28;;;;;;;4.60;3.30;;;;;;;34.27;24.08;99141.13;4982138;28;20034;-91
2022/07/01 12:31:06;;;;;;;3.70;2.90;;;;;;;34.32;23.82;99132.19;4977585;28;20076;-91
2022/07/01 12:33:40;;;;;;;6.80;3.63;;;;;;;34.44;24.65;99121.56;5000944;28;20041;-90
2022/07/01 12:36:06;;;;;;;5.50;3.03;;;;;;;34.41;24.74;99128.81;5000163;28;20025;-90
2022/07/01 12:38:32;;;;;;;7.32;3.88;;;;;;;34.65;24.50;99121.03;5000813;28;20021;-93
2022/07/01 12:40:58;;;;;;;7.57;3.22;;;;;;;34.64;23.77;99113.88;5000599;28;20508;-92
2022/07/01 12:43:32;;;;;;;9.40;3.70;;;;;;;34.79;23.75;99112.28;5000418;28;20037;-92
2022/07/01 12:46:02;;;;;;;9.40;3.20;;;;;;;34.77;23.03;99111.94;5018496;28;20029;-95
2022/07/01 12:48:51;;;;;;;5.40;2.72;;;;;;;34.84;23.64;99116.53;5423686;23;20549;-95
2022/07/01 12:51:21;;;;;;;4.00;2.47;;;;;;;35.01;22.83;99126.47;4993616;28;20026;-95
2022/07/01 12:53:47;;;;;;;7.07;3.42;;;;;;;35.14;23.03;99131.34;4986971;28;20029;-94
2022/07/01 12:56:24;;;;;;;5.70;2.70;;;;;;;35.11;23.19;99116.19;4987694;28;20498;-96
2022/07/01 12:58:52;;;;;;;8.50;3.00;;;;;;;35.21;23.44;99122.75;4985326;28;20059;-93
2022/07/01 13:01:21;;;;;;;6.53;3.00;;;;;;;35.20;22.57;99104.41;5001832;28;20056;-95
2022/07/01 13:03:47;;;;;;;4.97;3.08;;;;;;;35.44;22.03;99121.72;4988013;28;20049;-93
2022/07/01 13:06:12;;;;;;;4.25;3.00;;;;;;;35.41;21.75;99123.38;4986727;28;20029;-95
2022/07/01 13:08:38;;;;;;;10.10;3.17;;;;;;;35.37;21.46;99114.31;4985756;28;20124;-92
2022/07/01 13:11:04;;;;;;;5.55;3.00;;;;;;;35.72;21.21;99111.72;5000371;28;20052;-92
2022/07/01 13:13:34;;;;;;;9.82;3.80;;;;;;;35.84;22.50;99118.56;5000498;28;20495;-95